createdAt,value
2022-12-11T00:00:20.991Z,98638.94
2022-12-11T00:03:23.822Z,98649.00
2022-12-11T00:06:26.717Z,98657.09
2022-12-11T00:09:29.821Z,98674.81
2022-12-11T00:12:32.887Z,98687.72
2022-12-11T00:15:37.911Z,98685.09
2022-12-11T00:18:40.903Z,98694.38
2022-12-11T00:21:43.760Z,98710.66
2022-12-11T00:24:46.583Z,98706.47
2022-12-11T00:27:49.352Z,98711.91
2022-12-11T00:30:52.314Z,98727.22
2022-12-11T00:33:55.062Z,98731.06
2022-12-11T00:36:59.309Z,98756.63
2022-12-11T00:40:02.209Z,98757.25
2022-12-11T00:43:06.480Z,98759.47
2022-12-11T00:46:10.169Z,98772.56
2022-12-11T00:49:13.235Z,98783.06
2022-12-11T00:52:18.075Z,98773.41
2022-12-11T00:55:21.123Z,98784.06
2022-12-11T00:58:24.237Z,98796.53
2022-12-11T01:01:27.701Z,98784.47
2022-12-11T01:04:30.658Z,98799.19
2022-12-11T01:07:33.392Z,98804.78
2022-12-11T01:10:36.323Z,98810.03
2022-12-11T01:13:40.727Z,98810.84
2022-12-11T01:16:43.595Z,98807.19
2022-12-11T01:19:46.740Z,98804.16
2022-12-11T01:22:53.775Z,98802.56
2022-12-11T01:25:56.571Z,98809.41
2022-12-11T01:28:59.547Z,98806.97
2022-12-11T01:32:02.301Z,98815.63
2022-12-11T01:35:07.333Z,98811.38
2022-12-11T01:38:10.563Z,98803.34
2022-12-11T01:41:14.064Z,98813.59
2022-12-11T01:44:16.949Z,98821.66
2022-12-11T01:47:19.835Z,98813.00
2022-12-11T01:50:23.063Z,98814.81
2022-12-11T01:53:32.566Z,98817.59
2022-12-11T01:56:37.626Z,98819.63
2022-12-11T01:59:43.729Z,98818.81
2022-12-11T02:02:46.655Z,98818.81
2022-12-11T02:05:49.960Z,98823.25
2022-12-11T02:08:52.698Z,98814.81
2022-12-11T02:11:58.528Z,98807.72
2022-12-11T02:15:19.370Z,98800.06
2022-12-11T02:18:44.515Z,98819.81
2022-12-11T02:21:51.606Z,98829.84
2022-12-11T02:25:19.513Z,98842.13
2022-12-11T02:28:47.251Z,98838.28
2022-12-11T02:32:15.299Z,98819.78
2022-12-11T02:35:24.345Z,98813.13
2022-12-11T02:38:32.911Z,98818.56
2022-12-11T02:41:36.412Z,98839.44
2022-12-11T02:44:40.726Z,98856.16
2022-12-11T02:47:48.005Z,98845.25
2022-12-11T02:50:57.410Z,98848.66
2022-12-11T02:54:01.217Z,98853.53
2022-12-11T02:57:09.446Z,98858.13
2022-12-11T03:00:13.162Z,98871.44
2022-12-11T03:03:16.579Z,98888.13
2022-12-11T03:06:24.764Z,98895.38
2022-12-11T03:09:29.721Z,98891.97
2022-12-11T03:12:37.149Z,98908.84
2022-12-11T03:16:03.511Z,98911.66
2022-12-11T03:19:06.625Z,98907.47
2022-12-11T03:22:14.031Z,98921.75
2022-12-11T03:25:22.365Z,98922.53
2022-12-11T03:28:56.483Z,98935.25
2022-12-11T03:32:23.270Z,98952.34
2022-12-11T03:35:31.706Z,98946.31
2022-12-11T03:39:09.663Z,98958.38
2022-12-11T03:42:14.657Z,98961.03
2022-12-11T03:45:19.597Z,98969.44
2022-12-11T03:48:24.927Z,98964.84
2022-12-11T03:51:31.286Z,98968.47
2022-12-11T03:54:35.607Z,98974.69
2022-12-11T03:57:39.010Z,98966.63
2022-12-11T04:00:42.102Z,98968.63
2022-12-11T04:03:44.898Z,98983.50
2022-12-11T04:06:47.711Z,98977.25
2022-12-11T04:09:50.598Z,98979.69
2022-12-11T04:12:53.484Z,98991.19
2022-12-11T04:15:56.300Z,98988.16
2022-12-11T04:19:17.675Z,99003.66
2022-12-11T04:22:38.819Z,99010.88
2022-12-11T04:25:41.628Z,99008.31
2022-12-11T04:28:45.894Z,99013.09
2022-12-11T04:31:48.672Z,99005.03
2022-12-11T04:34:51.507Z,98993.78
2022-12-11T04:37:54.382Z,99001.03
2022-12-11T04:41:02.475Z,99013.34
2022-12-11T04:44:05.919Z,99020.19
2022-12-11T04:47:08.717Z,99029.03
2022-12-11T04:50:18.396Z,99018.16
2022-12-11T04:53:21.286Z,99035.50
2022-12-11T04:56:24.115Z,99038.72
2022-12-11T04:59:26.989Z,99052.22
2022-12-11T05:02:29.867Z,99047.19
2022-12-11T05:05:32.723Z,99066.13
2022-12-11T05:08:37.413Z,99070.19
2022-12-11T05:11:40.827Z,99075.03
2022-12-11T05:14:44.838Z,99059.75
2022-12-11T05:17:48.154Z,99073.63
2022-12-11T05:20:58.555Z,99075.28
2022-12-11T05:24:01.552Z,99080.94
2022-12-11T05:27:04.459Z,99075.91
2022-12-11T05:30:08.159Z,99087.41
2022-12-11T05:33:11.018Z,99092.84
2022-12-11T05:36:19.910Z,99090.44
2022-12-11T05:39:22.810Z,99090.09
2022-12-11T05:42:29.003Z,99080.19
2022-12-11T05:45:33.080Z,99085.41
2022-12-11T05:48:36.595Z,99099.16
2022-12-11T05:51:39.860Z,99089.28
2022-12-11T05:54:42.828Z,99089.06
2022-12-11T05:57:45.603Z,99098.13
2022-12-11T06:00:49.755Z,99091.47
2022-12-11T06:03:54.161Z,99100.97
2022-12-11T06:06:56.972Z,99110.44
2022-12-11T06:10:00.023Z,99130.19
2022-12-11T06:13:02.997Z,99144.69
2022-12-11T06:16:08.101Z,99144.25
2022-12-11T06:19:18.689Z,99146.50
2022-12-11T06:22:22.573Z,99156.38
2022-12-11T06:25:25.534Z,99166.84
2022-12-11T06:28:28.343Z,99178.31
2022-12-11T06:31:31.213Z,99184.00
2022-12-11T06:34:34.559Z,99181.75
2022-12-11T06:37:38.099Z,99180.59
2022-12-11T06:40:41.689Z,99191.69
2022-12-11T06:43:45.112Z,99195.09
2022-12-11T06:46:47.920Z,99199.34
2022-12-11T06:49:50.719Z,99214.34
2022-12-11T06:52:53.754Z,99204.25
2022-12-11T06:55:56.515Z,99201.28
2022-12-11T06:59:04.239Z,99194.56
2022-12-11T07:02:20.432Z,99204.25
2022-12-11T07:05:23.972Z,99195.63
2022-12-11T07:08:29.348Z,99203.72
2022-12-11T07:11:32.395Z,99209.31
2022-12-11T07:14:35.529Z,99208.72
2022-12-11T07:17:38.399Z,99219.22
2022-12-11T07:20:41.606Z,99218.63
2022-12-11T07:23:44.670Z,99232.09
2022-12-11T07:26:47.644Z,99239.09
2022-12-11T07:29:51.215Z,99239.47
2022-12-11T07:32:54.124Z,99260.47
2022-12-11T07:35:56.980Z,99266.16
2022-12-11T07:39:02.175Z,99284.91
2022-12-11T07:42:05.018Z,99280.25
2022-12-11T07:45:08.728Z,99289.19
2022-12-11T07:48:12.911Z,99283.84
2022-12-11T07:51:26.545Z,99294.00
2022-12-11T07:54:29.689Z,99277.88
2022-12-11T07:57:32.476Z,99292.78
2022-12-11T08:00:36.472Z,99296.81
2022-12-11T08:03:40.246Z,99297.19
2022-12-11T08:06:43.866Z,99312.72
2022-12-11T08:09:46.851Z,99319.97
2022-12-11T08:12:49.682Z,99333.91
2022-12-11T08:15:54.800Z,99334.06
2022-12-11T08:18:58.435Z,99355.25
2022-12-11T08:22:02.332Z,99336.66
2022-12-11T08:25:05.661Z,99337.31
2022-12-11T08:28:08.578Z,99337.91
2022-12-11T08:31:13.897Z,99328.41
2022-12-11T08:34:16.671Z,99337.91
2022-12-11T08:37:19.463Z,99333.63
2022-12-11T08:40:22.202Z,99331.84
2022-12-11T08:43:25.256Z,99329.34
2022-12-11T08:46:31.531Z,99333.38
2022-12-11T08:49:34.817Z,99347.84
2022-12-11T08:52:37.662Z,99360.38
2022-12-11T08:55:40.851Z,99351.19
2022-12-11T08:58:44.606Z,99370.38
2022-12-11T09:01:47.488Z,99367.16
2022-12-11T09:04:50.767Z,99376.84
2022-12-11T09:07:53.603Z,99375.81
2022-12-11T09:10:56.545Z,99359.53
2022-12-11T09:14:05.146Z,99370.19
2022-12-11T09:17:09.906Z,99381.03
2022-12-11T09:20:12.743Z,99383.84
2022-12-11T09:23:17.602Z,99391.81
2022-12-11T09:26:21.639Z,99395.06
2022-12-11T09:29:25.386Z,99394.25
2022-12-11T09:32:28.477Z,99407.94
2022-12-11T09:35:31.301Z,99406.72
2022-12-11T09:38:34.993Z,99396.88
2022-12-11T09:41:47.328Z,99390.47
2022-12-11T09:45:00.737Z,99382.81
2022-12-11T09:48:03.690Z,99366.03
2022-12-11T09:51:18.966Z,99370.50
2022-12-11T09:54:21.880Z,99365.47
2022-12-11T09:57:27.506Z,99378.97
2022-12-11T10:01:22.848Z,99391.25
2022-12-11T10:04:56.511Z,99398.06
2022-12-11T10:08:36.824Z,99370.47
2022-12-11T10:12:12.721Z,99356.38
2022-12-11T10:15:30.788Z,99373.53
2022-12-11T10:18:34.369Z,99363.66
2022-12-11T10:21:41.740Z,99380.63
2022-12-11T10:25:11.619Z,99389.34
2022-12-11T10:28:20.551Z,99388.38
2022-12-11T10:31:29.827Z,99391.19
2022-12-11T10:34:40.425Z,99394.22
2022-12-11T10:37:43.189Z,99386.88
2022-12-11T10:41:12.665Z,99383.03
2022-12-11T10:44:27.359Z,99385.81
2022-12-11T10:47:30.325Z,99383.66
2022-12-11T10:50:34.124Z,99385.25
2022-12-11T10:53:37.121Z,99381.38
2022-12-11T10:56:39.971Z,99380.84
2022-12-11T10:59:50.593Z,99379.66
2022-12-11T11:02:53.745Z,99380.81
2022-12-11T11:06:23.429Z,99375.56
2022-12-11T11:09:36.402Z,99379.38
2022-12-11T11:12:42.511Z,99377.91
2022-12-11T11:15:45.563Z,99376.34
2022-12-11T11:18:54.850Z,99369.75
2022-12-11T11:22:19.551Z,99360.22
2022-12-11T11:25:28.845Z,99373.94
2022-12-11T11:28:38.136Z,99369.09
2022-12-11T11:31:42.538Z,99367.28
2022-12-11T11:34:45.430Z,99370.66
2022-12-11T11:38:00.839Z,99376.28
2022-12-11T11:41:21.291Z,99380.56
2022-12-11T11:44:49.810Z,99382.59
2022-12-11T11:48:18.153Z,99382.16
2022-12-11T11:51:40.408Z,99371.47
2022-12-11T11:55:18.485Z,99388.66
2022-12-11T11:58:45.241Z,99404.16
2022-12-11T12:01:48.106Z,99402.91
2022-12-11T12:04:51.671Z,99409.56
2022-12-11T12:08:06.661Z,99412.59
2022-12-11T12:11:12.764Z,99416.44
2022-12-11T12:18:04.052Z,99416.56
2022-12-11T12:21:17.520Z,99418.13
2022-12-11T12:24:59.932Z,99415.13
2022-12-11T12:28:23.996Z,99397.34
2022-12-11T12:31:57.801Z,99400.53
2022-12-11T12:35:12.916Z,99408.66
2022-12-11T12:38:33.064Z,99401.38
2022-12-11T12:42:17.268Z,99404.09
2022-12-11T12:45:48.698Z,99402.88
2022-12-11T12:48:55.246Z,99419.59
2022-12-11T12:51:59.131Z,99418.72
2022-12-11T12:55:14.607Z,99427.19
2022-12-11T12:58:27.163Z,99422.22
2022-12-11T13:01:31.836Z,99436.72
2022-12-11T13:04:55.866Z,99441.34
2022-12-11T13:08:05.303Z,99435.16
2022-12-11T13:11:11.481Z,99439.16
2022-12-11T13:14:14.344Z,99443.00
2022-12-11T13:17:20.140Z,99445.50
2022-12-11T13:20:29.159Z,99448.44
2022-12-11T13:23:34.946Z,99457.16
2022-12-11T13:26:37.757Z,99460.56
2022-12-11T13:29:42.367Z,99460.59
2022-12-11T13:32:57.257Z,99462.88
2022-12-11T13:36:25.071Z,99449.50
2022-12-11T13:39:31.154Z,99446.31
2022-12-11T13:42:47.795Z,99446.66
2022-12-11T13:45:53.741Z,99444.25
2022-12-11T13:49:02.663Z,99447.56
2022-12-11T13:52:07.411Z,99456.72
2022-12-11T13:55:22.112Z,99451.69
2022-12-11T13:58:25.305Z,99463.34
2022-12-11T14:01:33.478Z,99459.69
2022-12-11T14:04:37.993Z,99462.31
2022-12-11T14:07:49.333Z,99472.06
2022-12-11T14:10:55.907Z,99469.19
2022-12-11T14:14:01.886Z,99467.22
2022-12-11T14:17:04.953Z,99466.81
2022-12-11T14:20:20.661Z,99463.53
2022-12-11T14:23:27.112Z,99482.28
2022-12-11T14:26:33.101Z,99478.63
2022-12-11T14:29:35.910Z,99484.91
2022-12-11T14:32:45.269Z,99495.94
2022-12-11T14:35:50.895Z,99496.34
2022-12-11T14:38:57.840Z,99494.09
2022-12-11T14:42:15.584Z,99500.31
2022-12-11T14:45:30.957Z,99509.81
2022-12-11T14:48:45.012Z,99499.34
2022-12-11T14:51:49.556Z,99503.25
2022-12-11T14:54:58.214Z,99504.84
2022-12-11T14:58:26.609Z,99509.53
2022-12-11T15:01:37.964Z,99514.09
2022-12-11T15:04:40.926Z,99534.50
2022-12-11T15:07:54.912Z,99533.06
2022-12-11T15:11:04.418Z,99544.91
2022-12-11T15:14:12.587Z,99549.59
2022-12-11T15:17:16.334Z,99563.75
2022-12-11T15:20:30.546Z,99568.31
2022-12-11T15:23:40.420Z,99572.53
2022-12-11T15:26:48.126Z,99568.31
2022-12-11T15:29:50.960Z,99581.47
2022-12-11T15:33:12.163Z,99583.63
2022-12-11T15:36:30.332Z,99586.81
2022-12-11T15:39:33.528Z,99570.53
2022-12-11T15:42:40.127Z,99576.22
2022-12-11T15:45:43.633Z,99569.72
2022-12-11T15:48:48.923Z,99561.44
2022-12-11T15:51:52.563Z,99549.69
2022-12-11T15:54:55.337Z,99550.63
2022-12-11T15:58:02.022Z,99552.41
2022-12-11T16:01:05.158Z,99545.31
2022-12-11T16:04:08.444Z,99546.19
2022-12-11T16:07:22.999Z,99552.00
2022-12-11T16:10:27.238Z,99561.66
2022-12-11T16:13:30.152Z,99558.94
2022-12-11T16:16:33.249Z,99565.56
2022-12-11T16:19:37.281Z,99559.13
2022-12-11T16:22:40.063Z,99569.88
2022-12-11T16:25:44.183Z,99574.50
2022-12-11T16:28:47.007Z,99580.25
2022-12-11T16:31:49.916Z,99586.13
2022-12-11T16:34:53.068Z,99580.09
2022-12-11T16:37:57.396Z,99579.06
2022-12-11T16:41:01.865Z,99569.50
2022-12-11T16:44:05.225Z,99570.84
2022-12-11T16:47:08.029Z,99570.16
2022-12-11T16:50:14.230Z,99577.72
2022-12-11T16:53:17.710Z,99585.28
2022-12-11T16:56:20.606Z,99587.13
2022-12-11T16:59:24.047Z,99587.00
2022-12-11T17:02:26.925Z,99572.03
2022-12-11T17:05:30.056Z,99577.63
2022-12-11T17:08:33.199Z,99577.72
2022-12-11T17:11:36.132Z,99572.19
2022-12-11T17:14:39.266Z,99574.19
2022-12-11T17:17:43.452Z,99573.22
2022-12-11T17:20:46.587Z,99573.38
2022-12-11T17:23:50.904Z,99567.25
2022-12-11T17:26:55.646Z,99577.78
2022-12-11T17:29:59.606Z,99578.41
2022-12-11T17:33:03.021Z,99578.31
2022-12-11T17:36:07.913Z,99576.88
2022-12-11T17:39:10.752Z,99583.00
2022-12-11T17:42:13.970Z,99587.41
2022-12-11T17:45:17.320Z,99586.97
2022-12-11T17:48:22.856Z,99596.16
2022-12-11T17:51:26.158Z,99598.25
2022-12-11T17:54:29.326Z,99600.66
2022-12-11T17:57:32.519Z,99605.94
2022-12-11T18:00:42.553Z,99601.72
2022-12-11T18:03:45.441Z,99608.31
2022-12-11T18:06:48.305Z,99616.16
2022-12-11T18:09:51.307Z,99613.53
2022-12-11T18:12:54.313Z,99616.41
2022-12-11T18:16:11.779Z,99632.00
2022-12-11T18:19:15.961Z,99633.44
2022-12-11T18:22:19.722Z,99630.28
2022-12-11T18:25:22.672Z,99631.63
2022-12-11T18:28:27.918Z,99636.34
2022-12-11T18:31:30.939Z,99634.31
2022-12-11T18:34:34.188Z,99633.53
2022-12-11T18:37:38.257Z,99644.59
2022-12-11T18:40:41.984Z,99645.41
2022-12-11T18:43:45.783Z,99655.56
2022-12-11T18:46:50.299Z,99646.44
2022-12-11T18:49:53.988Z,99646.44
2022-12-11T18:52:57.282Z,99657.38
2022-12-11T18:56:00.938Z,99661.50
2022-12-11T18:59:04.961Z,99661.63
2022-12-11T19:02:08.300Z,99668.38
2022-12-11T19:05:12.630Z,99665.09
2022-12-11T19:08:16.858Z,99661.03
2022-12-11T19:11:22.991Z,99661.16
2022-12-11T19:14:26.183Z,99657.25
2022-12-11T19:17:28.995Z,99660.69
2022-12-11T19:20:48.605Z,99666.91
2022-12-11T19:23:53.700Z,99660.28
2022-12-11T19:26:57.470Z,99656.44
2022-12-11T19:30:01.305Z,99677.22
2022-12-11T19:33:04.505Z,99683.44
2022-12-11T19:36:10.800Z,99679.53
2022-12-11T19:39:16.601Z,99696.69
2022-12-11T19:42:19.643Z,99697.22
2022-12-11T19:45:22.939Z,99696.38
2022-12-11T19:48:26.040Z,99707.78
2022-12-11T19:51:33.884Z,99709.75
2022-12-11T19:54:37.389Z,99712.19
2022-12-11T19:57:41.048Z,99711.88
2022-12-11T20:00:43.953Z,99710.75
2022-12-11T20:03:47.142Z,99717.75
2022-12-11T20:06:50.357Z,99716.63
2022-12-11T20:09:53.355Z,99728.25
2022-12-11T20:12:56.877Z,99734.44
2022-12-11T20:16:00.978Z,99727.44
2022-12-11T20:19:05.350Z,99731.34
2022-12-11T20:22:09.369Z,99733.47
2022-12-11T20:25:12.670Z,99733.81
2022-12-11T20:28:16.150Z,99732.53
2022-12-11T20:31:25.237Z,99735.78
2022-12-11T20:34:28.459Z,99736.59
2022-12-11T20:37:31.828Z,99739.19
2022-12-11T20:40:36.653Z,99736.94
2022-12-11T20:43:40.460Z,99741.00
2022-12-11T20:46:43.473Z,99732.88
2022-12-11T20:49:49.981Z,99732.19
2022-12-11T20:52:52.830Z,99737.06
2022-12-11T20:55:55.807Z,99736.25
2022-12-11T20:59:00.114Z,99726.91
2022-12-11T21:02:03.687Z,99732.84
2022-12-11T21:05:07.142Z,99736.31
2022-12-11T21:08:11.062Z,99741.88
2022-12-11T21:11:14.665Z,99757.59
2022-12-11T21:14:19.169Z,99743.75
2022-12-11T21:17:22.560Z,99756.94
2022-12-11T21:20:26.117Z,99760.06
2022-12-11T21:23:29.072Z,99751.28
2022-12-11T21:26:31.873Z,99764.84
2022-12-11T21:29:35.008Z,99764.53
2022-12-11T21:32:37.930Z,99761.59
2022-12-11T21:35:40.785Z,99762.25
2022-12-11T21:38:44.957Z,99761.59
2022-12-11T21:41:47.949Z,99768.13
2022-12-11T21:48:14.166Z,99764.38
2022-12-11T21:51:36.129Z,99763.41
2022-12-11T21:54:39.351Z,99765.03
2022-12-11T21:57:42.089Z,99773.66
2022-12-11T22:00:47.555Z,99774.47
2022-12-11T22:03:51.503Z,99771.06
2022-12-11T22:06:54.316Z,99766.66
2022-12-11T22:09:58.164Z,99764.38
2022-12-11T22:13:00.974Z,99778.69
2022-12-11T22:16:03.918Z,99777.88
2022-12-11T22:19:06.770Z,99794.66
2022-12-11T22:22:09.567Z,99785.66
2022-12-11T22:25:12.788Z,99792.19
2022-12-11T22:28:15.896Z,99785.50
2022-12-11T22:31:23.046Z,99797.09
2022-12-11T22:34:25.860Z,99784.53
2022-12-11T22:37:29.332Z,99797.91
2022-12-11T22:40:33.099Z,99795.63
2022-12-11T22:43:35.884Z,99805.53
2022-12-11T22:46:38.662Z,99804.44
2022-12-11T22:49:41.822Z,99800.31
2022-12-11T22:52:45.602Z,99804.91
2022-12-11T22:55:48.546Z,99810.91
2022-12-11T22:58:51.408Z,99822.66
2022-12-11T23:01:54.332Z,99824.09
2022-12-11T23:04:57.168Z,99842.22
2022-12-11T23:08:00.182Z,99852.78
2022-12-11T23:11:09.923Z,99859.47
2022-12-11T23:14:16.146Z,99872.47
2022-12-11T23:17:18.942Z,99860.94
2022-12-11T23:20:25.489Z,99854.75
2022-12-11T23:23:28.763Z,99844.53
2022-12-11T23:26:32.119Z,99843.06
2022-12-11T23:29:35.005Z,99851.03
2022-12-11T23:32:37.930Z,99860.78
2022-12-11T23:35:41.066Z,99850.34
2022-12-11T23:38:46.241Z,99845.00
2022-12-11T23:41:52.402Z,99849.06
2022-12-11T23:44:55.403Z,99838.47
2022-12-11T23:47:58.173Z,99834.56
2022-12-11T23:51:04.352Z,99840.13
2022-12-11T23:54:07.549Z,99849.88
2022-12-11T23:57:10.238Z,99845.84
